Walla Walla, Washington
Current Conditions -  °F | °C
As of 2:53 PM on Thursday 23 Oct 2014 (Local Time) from KALW Reporting Station
Moderate Rain Moderate Rain  
Wind Chill: 55°   Ceiling: 3800
Heat Index: 55°   Visibility: 3mi
Dew Point: 50°   Wind: 10mph
Humidity: 83%   Direction: 190°S
Pressure: 29.89"   Gusts: NA
Location:  46.07°N, 118.34°W
Report Text: KALW 232153Z 19009KT 3SM RA BKN038 OVC050 13/10 A2989 RMK AO2 SLP122 P0007 T01280100
Loading
Personal Weather Stations






























Interactive Weather Map
Tropical Storm Tracking
New forecast layout! Learn more

10-Day Weather Forecast

Advertisements
Track Severe Weather on mobile